Time;durP1;ratioP1;P1;durP2;ratioP2;P2;SDS_P1;SDS_P2;PMS_P1;PMS_P2;Temp;Humidity;BMP_temperature;BMP_pressure;BME280_temperature;BME280_humidity;BME280_pressure;Samples;Min_cycle;Max_cycle;Signal;HPM_P1;HPM_P2
2022/07/09 00:00:49;;;;;;;1.80;1.70;;;;;;;16.42;69.46;102772.63;5013118;28;20022;-85
2022/07/09 00:03:14;;;;;;;1.90;1.80;;;;;;;16.40;69.81;102771.75;5012473;28;20062;-86
2022/07/09 00:05:40;;;;;;;2.20;1.90;;;;;;;16.37;69.89;102777.03;5013076;28;20450;-85
2022/07/09 00:08:05;;;;;;;1.90;1.80;;;;;;;16.33;69.99;102770.06;5013116;28;20118;-86
2022/07/09 00:10:39;;;;;;;1.90;1.80;;;;;;;16.29;70.05;102778.84;5012609;28;20088;-86
2022/07/09 00:13:13;;;;;;;2.10;1.90;;;;;;;16.24;70.10;102765.78;5012598;28;20076;-85
2022/07/09 00:15:38;;;;;;;2.03;1.92;;;;;;;16.21;70.34;102768.44;5012795;28;20513;-86
2022/07/09 00:18:04;;;;;;;1.90;1.80;;;;;;;16.16;70.48;102772.81;5011897;28;20109;-86
2022/07/09 00:20:29;;;;;;;2.10;2.00;;;;;;;16.11;70.62;102764.16;5012961;28;20060;-85
2022/07/09 00:22:54;;;;;;;1.97;1.87;;;;;;;16.09;70.59;102769.41;5012353;28;20068;-86
2022/07/09 00:25:20;;;;;;;1.90;1.80;;;;;;;16.04;70.62;102769.41;5011931;28;20030;-86
2022/07/09 00:27:45;;;;;;;2.87;1.90;;;;;;;15.99;71.05;102771.22;5012986;28;20034;-86
2022/07/09 00:30:11;;;;;;;1.80;1.70;;;;;;;15.98;70.78;102776.47;5012535;28;20489;-86
2022/07/09 00:32:36;;;;;;;2.00;1.90;;;;;;;15.95;70.84;102771.25;5012126;28;20058;-86
2022/07/09 00:35:07;;;;;;;3.07;2.10;;;;;;;15.93;71.05;102771.25;5012417;28;20497;-85
2022/07/09 00:37:32;;;;;;;2.08;1.90;;;;;;;15.86;71.01;102757.34;5012214;28;20524;-85
2022/07/09 00:39:58;;;;;;;2.10;1.97;;;;;;;15.86;71.16;102761.69;5012254;28;20026;-85
2022/07/09 00:42:24;;;;;;;2.00;1.90;;;;;;;15.85;71.01;102768.69;5012953;28;20026;-86
2022/07/09 00:44:50;;;;;;;;;;;;;;;15.83;71.23;102759.06;5012144;28;20030;-84
2022/07/09 00:47:15;;;;;;;2.00;1.90;;;;;;;15.78;71.13;102764.34;5012477;28;19925;-85
2022/07/09 00:49:44;;;;;;;2.20;2.00;;;;;;;15.74;71.07;102762.63;5012689;28;20041;-84
2022/07/09 00:52:12;;;;;;;1.83;1.73;;;;;;;15.69;71.59;102754.81;5011589;28;20244;-85
2022/07/09 00:54:39;;;;;;;2.10;1.90;;;;;;;15.66;71.40;102764.41;5012302;28;20092;-85
2022/07/09 00:57:07;;;;;;;;;;;;;;;15.63;71.54;102762.69;5012757;28;20450;-84
2022/07/09 00:59:33;;;;;;;3.20;1.90;;;;;;;15.60;71.48;102763.56;5011967;28;19918;-85
2022/07/09 01:02:00;;;;;;;2.42;2.10;;;;;;;15.56;71.77;102761.84;5012137;28;20193;-84
2022/07/09 01:04:25;;;;;;;1.92;1.83;;;;;;;15.53;71.73;102758.38;5015105;28;20393;-85
2022/07/09 01:06:50;;;;;;;2.10;2.00;;;;;;;15.50;71.63;102761.00;5015270;28;20029;-85
2022/07/09 01:09:16;;;;;;;2.10;2.00;;;;;;;15.47;71.91;102767.13;5015930;28;20037;-85
2022/07/09 01:11:41;;;;;;;2.00;1.90;;;;;;;15.45;72.40;102766.28;5016397;28;20037;-85
2022/07/09 01:14:06;;;;;;;1.90;1.80;;;;;;;15.41;72.14;102756.72;5014907;28;20037;-85
2022/07/09 01:16:34;;;;;;;1.80;1.70;;;;;;;15.38;72.40;102746.25;5015953;28;20040;-85
2022/07/09 01:18:59;;;;;;;2.05;1.95;;;;;;;15.35;72.29;102739.31;5015759;28;20462;-85
2022/07/09 01:21:24;;;;;;;2.03;1.90;;;;;;;15.32;72.31;102744.53;5014801;28;20041;-85
2022/07/09 01:23:50;;;;;;;1.70;1.60;;;;;;;15.31;72.55;102744.56;5015978;28;20026;-84
2022/07/09 01:26:16;;;;;;;1.80;1.70;;;;;;;15.26;72.43;102737.59;5016102;28;20118;-84
2022/07/09 01:28:41;;;;;;;1.90;1.80;;;;;;;15.24;72.48;102741.94;5014961;28;20030;-85
2022/07/09 01:31:07;;;;;;;1.90;1.80;;;;;;;15.19;72.58;102729.78;5015114;28;20096;-85
2022/07/09 01:33:33;;;;;;;1.93;1.83;;;;;;;15.19;72.53;102735.00;5015671;28;20100;-85
2022/07/09 01:35:58;;;;;;;2.00;1.90;;;;;;;15.19;72.67;102737.63;5014375;28;20025;-85
2022/07/09 01:38:24;;;;;;;2.13;1.90;;;;;;;15.14;72.71;102720.19;5015483;28;20119;-85
2022/07/09 01:40:49;;;;;;;1.90;1.80;;;;;;;15.12;72.73;102728.94;5014747;28;20131;-84
2022/07/09 01:43:14;;;;;;;1.80;1.70;;;;;;;15.08;72.95;102724.59;5015427;28;20032;-85
2022/07/09 01:45:39;;;;;;;2.27;2.03;;;;;;;15.03;72.61;102719.38;5015269;28;20028;-85
2022/07/09 01:48:05;;;;;;;1.93;1.83;;;;;;;15.01;72.63;102728.09;5014010;28;20026;-85
2022/07/09 01:50:30;;;;;;;2.10;2.00;;;;;;;14.97;72.99;102733.34;5015544;28;20022;-85
2022/07/09 01:52:56;;;;;;;2.00;1.90;;;;;;;14.95;73.17;102723.75;5015269;28;20529;-84
2022/07/09 01:55:21;;;;;;;2.10;2.00;;;;;;;14.93;72.89;102729.00;5014608;28;20026;-85
2022/07/09 01:57:46;;;;;;;1.90;1.80;;;;;;;14.89;73.15;102721.19;5014942;28;20026;-84
2022/07/09 02:00:12;;;;;;;1.90;1.80;;;;;;;14.85;73.18;102720.31;5014997;28;20156;-84
2022/07/09 02:02:37;;;;;;;2.00;1.90;;;;;;;14.84;73.29;102718.59;5014396;28;20018;-84
2022/07/09 02:05:03;;;;;;;2.30;2.10;;;;;;;14.81;73.06;102719.44;5014327;28;20030;-84
2022/07/09 02:07:28;;;;;;;2.10;2.00;;;;;;;14.79;73.30;102718.59;5014640;28;20034;-84
2022/07/09 02:09:54;;;;;;;2.10;2.00;;;;;;;14.77;73.31;102722.06;5013861;28;20034;-84
2022/07/09 02:12:20;;;;;;;2.33;2.13;;;;;;;14.75;73.42;102722.09;5014925;28;20018;-84
2022/07/09 02:14:45;;;;;;;2.30;2.10;;;;;;;14.72;73.43;102716.00;5014045;28;20320;-85
2022/07/09 02:17:11;;;;;;;2.30;2.10;;;;;;;14.71;73.77;102715.13;5013927;28;20382;-84
2022/07/09 02:19:36;;;;;;;2.13;2.03;;;;;;;14.67;73.67;102708.19;5014490;28;20485;-85
2022/07/09 02:22:02;;;;;;;2.20;2.10;;;;;;;14.66;73.38;102715.09;5014427;28;20030;-84
2022/07/09 02:24:28;;;;;;;2.03;1.93;;;;;;;14.63;73.58;102712.53;5013557;28;20026;-84
2022/07/09 02:27:02;;;;;;;2.53;2.30;;;;;;;14.62;73.68;102709.88;5014076;28;20470;-84
2022/07/09 02:29:27;;;;;;;2.33;2.13;;;;;;;14.58;73.80;102703.81;5014264;28;20621;-85
2022/07/09 02:31:55;;;;;;;2.67;2.23;;;;;;;14.57;74.08;102709.06;5013847;28;20034;-84
2022/07/09 02:34:21;;;;;;;2.55;2.30;;;;;;;14.54;73.88;102703.81;5014654;28;20087;-84
2022/07/09 02:36:56;;;;;;;2.58;2.20;;;;;;;14.51;73.85;102700.34;5014729;28;20045;-85
2022/07/09 02:39:30;;;;;;;2.45;2.00;;;;;;;14.51;74.02;102697.72;5014148;28;20033;-84
2022/07/09 02:41:55;;;;;;;2.63;2.20;;;;;;;14.51;73.81;102702.09;5014077;28;20029;-84
2022/07/09 02:44:21;;;;;;;2.50;2.30;;;;;;;14.49;74.11;102694.25;5013472;28;20028;-84
2022/07/09 02:46:46;;;;;;;2.50;2.30;;;;;;;14.48;74.07;102694.25;5014607;28;20417;-84
2022/07/09 02:49:11;;;;;;;3.03;2.40;;;;;;;14.46;74.14;102682.94;5013794;28;20053;-84
2022/07/09 02:51:37;;;;;;;2.50;2.30;;;;;;;14.43;74.53;102694.25;5013426;28;20022;-85
2022/07/09 02:54:11;;;;;;;2.30;2.10;;;;;;;14.40;74.31;102685.56;5013798;28;20022;-84
2022/07/09 02:56:37;;;;;;;3.20;2.20;;;;;;;14.34;74.30;102679.47;5014173;28;20430;-84
2022/07/09 02:59:05;;;;;;;2.97;2.40;;;;;;;14.34;74.13;102681.22;5013041;28;20324;-84
2022/07/09 03:01:30;;;;;;;3.20;2.30;;;;;;;14.32;74.69;102680.34;5014259;28;20053;-84
2022/07/09 03:03:55;;;;;;;2.40;2.20;;;;;;;14.29;74.38;102680.34;5013992;28;20018;-85
2022/07/09 03:06:21;;;;;;;2.70;2.30;;;;;;;14.28;74.64;102682.09;5013319;28;20409;-84
2022/07/09 03:08:46;;;;;;;2.57;2.37;;;;;;;14.26;74.67;102691.69;5014167;28;20470;-85
2022/07/09 03:11:12;;;;;;;2.93;2.40;;;;;;;14.24;74.75;102693.41;5013562;28;20022;-84
2022/07/09 03:13:37;;;;;;;2.47;2.27;;;;;;;14.21;74.58;102689.06;5012928;28;20076;-85
2022/07/09 03:16:03;;;;;;;2.13;2.03;;;;;;;14.17;74.69;102681.25;5013212;28;20029;-84
2022/07/09 03:18:29;;;;;;;2.30;2.10;;;;;;;14.14;74.66;102684.72;5013240;28;20030;-84
2022/07/09 03:20:55;;;;;;;2.30;2.10;;;;;;;14.11;74.68;102679.50;5012906;28;20334;-85
2022/07/09 03:23:20;;;;;;;2.40;2.20;;;;;;;14.08;74.96;102681.22;5013356;28;20421;-84
2022/07/09 03:25:45;;;;;;;3.10;2.40;;;;;;;14.05;74.80;102683.00;5013691;28;20029;-84
2022/07/09 03:28:11;;;;;;;2.30;2.10;;;;;;;14.02;74.99;102677.75;5012556;28;20030;-84
2022/07/09 03:30:36;;;;;;;2.00;1.90;;;;;;;14.00;75.05;102678.66;5013406;28;20038;-84
2022/07/09 03:33:02;;;;;;;2.73;2.00;;;;;;;13.96;75.17;102680.34;5012969;28;20049;-83
2022/07/09 03:35:27;;;;;;;2.40;2.20;;;;;;;13.96;75.00;102679.50;5012972;28;20028;-83
2022/07/09 03:37:52;;;;;;;2.30;2.10;;;;;;;13.95;74.96;102682.97;5013403;28;20053;-83
2022/07/09 03:40:18;;;;;;;2.30;2.10;;;;;;;13.95;75.33;102688.19;5012798;28;20028;-83
2022/07/09 03:42:43;;;;;;;2.40;2.20;;;;;;;13.93;75.30;102683.00;5013533;28;20472;-84
2022/07/09 03:45:09;;;;;;;2.10;2.00;;;;;;;13.93;74.99;102684.72;5013034;28;20030;-83
2022/07/09 03:47:35;;;;;;;2.42;2.22;;;;;;;13.92;75.47;102685.59;5012678;28;20068;-83
2022/07/09 03:50:01;;;;;;;2.20;2.10;;;;;;;13.92;75.30;102677.75;5025948;28;20049;-84
2022/07/09 03:52:26;;;;;;;2.57;2.37;;;;;;;13.92;75.45;102678.63;5016384;28;20026;-83
2022/07/09 03:54:51;;;;;;;2.60;2.40;;;;;;;13.94;75.34;102686.47;5012374;28;20076;-83
2022/07/09 03:57:16;;;;;;;2.53;2.33;;;;;;;13.92;75.43;102678.63;5013489;28;20153;-83
2022/07/09 03:59:42;;;;;;;2.70;2.33;;;;;;;13.93;75.53;102680.38;5013026;28;20026;-84
2022/07/09 04:02:07;;;;;;;2.60;2.40;;;;;;;13.95;75.56;102681.25;5012406;28;20372;-83
2022/07/09 04:04:32;;;;;;;2.90;2.60;;;;;;;13.98;75.43;102689.06;5013091;28;20367;-84
2022/07/09 04:06:58;;;;;;;2.50;2.30;;;;;;;13.99;75.44;102682.97;5013094;28;20022;-84
2022/07/09 04:09:23;;;;;;;2.70;2.50;;;;;;;13.98;75.56;102673.41;5012393;28;20018;-84
2022/07/09 04:11:49;;;;;;;2.30;2.10;;;;;;;13.98;75.45;102685.59;5012606;28;20033;-84
2022/07/09 04:14:14;;;;;;;3.00;2.50;;;;;;;13.98;75.38;102681.22;5012935;28;20037;-84
2022/07/09 04:16:40;;;;;;;3.23;2.60;;;;;;;14.01;75.59;102669.94;5012874;28;20410;-84
2022/07/09 04:19:05;;;;;;;3.13;2.50;;;;;;;14.02;75.70;102672.53;5012084;28;20034;-84
2022/07/09 04:21:31;;;;;;;3.13;2.70;;;;;;;14.07;75.59;102669.06;5012927;28;20496;-83
2022/07/09 04:23:56;;;;;;;2.50;2.30;;;;;;;14.08;75.70;102668.19;5011982;28;20022;-83
2022/07/09 04:26:21;;;;;;;2.60;2.40;;;;;;;14.09;75.89;102672.53;5012951;28;20023;-84
2022/07/09 04:28:47;;;;;;;2.57;2.37;;;;;;;14.08;76.07;102666.44;5012815;28;20029;-84
2022/07/09 04:31:12;;;;;;;2.30;2.10;;;;;;;14.08;75.78;102668.19;5011909;28;20112;-84
2022/07/09 04:33:38;;;;;;;4.07;2.30;;;;;;;14.08;75.80;102666.44;5013064;28;20117;-83
2022/07/09 04:36:04;;;;;;;2.70;2.47;;;;;;;14.08;75.73;102661.22;5012586;28;20054;-84
2022/07/09 04:38:29;;;;;;;2.60;2.40;;;;;;;14.14;75.97;102671.66;5013152;28;20021;-84
2022/07/09 04:40:55;;;;;;;2.53;2.33;;;;;;;14.16;76.01;102669.91;5016516;28;20026;-84
2022/07/09 04:43:20;;;;;;;2.80;2.20;;;;;;;14.19;76.07;102672.53;5016557;28;20023;-83
2022/07/09 04:45:55;;;;;;;2.40;2.20;;;;;;;14.21;76.15;102668.19;5016111;28;20515;-83
2022/07/09 04:48:20;;;;;;;2.50;2.30;;;;;;;14.23;76.53;102662.94;5016717;28;20037;-84
2022/07/09 04:50:45;;;;;;;2.20;2.10;;;;;;;14.29;76.35;102673.41;5015910;28;20030;-83
2022/07/09 04:53:10;;;;;;;2.50;2.30;;;;;;;14.39;76.42;102666.41;5015927;28;20030;-83
2022/07/09 04:55:36;;;;;;;4.10;2.80;;;;;;;14.51;76.72;102668.97;5016368;28;20026;-83
2022/07/09 04:58:01;;;;;;;2.93;2.60;;;;;;;14.63;76.67;102667.22;5015337;28;20489;-85
2022/07/09 05:00:26;;;;;;;2.30;2.10;;;;;;;14.71;77.38;102667.22;5015959;28;20064;-84
2022/07/09 05:02:51;;;;;;;2.50;2.30;;;;;;;14.77;76.96;102668.06;5016019;28;20108;-83
2022/07/09 05:05:21;;;;;;;2.20;2.00;;;;;;;14.83;77.51;102661.94;5015218;28;20018;-84
2022/07/09 05:07:47;;;;;;;3.60;2.70;;;;;;;14.90;76.80;102661.03;5016508;28;20046;-84
2022/07/09 05:10:12;;;;;;;3.33;2.90;;;;;;;14.96;77.29;102661.03;5015737;28;20442;-84
2022/07/09 05:12:44;;;;;;;3.97;2.97;;;;;;;15.06;76.98;102658.38;5015699;28;20026;-84
2022/07/09 05:15:10;;;;;;;4.30;3.40;;;;;;;15.12;76.27;102656.59;5015821;28;20030;-84
2022/07/09 05:17:37;;;;;;;5.57;3.63;;;;;;;15.18;77.11;102658.31;5016030;28;20062;-84
2022/07/09 05:20:05;;;;;;;;;;;;;;;15.25;77.11;102657.38;5015592;28;20026;-84
2022/07/09 05:22:32;;;;;;;5.75;3.42;;;;;;;15.31;77.25;102655.63;5015984;28;19913;-84
2022/07/09 05:24:57;;;;;;;;;;;;;;;15.38;77.60;102650.31;5015896;28;20088;-84
2022/07/09 05:27:23;;;;;;;5.95;3.17;;;;;;;15.44;76.99;102657.25;5015353;28;19914;-85
2022/07/09 05:29:48;;;;;;;3.73;2.90;;;;;;;15.51;77.51;102651.13;5015045;28;20046;-84
2022/07/09 05:32:13;;;;;;;3.00;2.70;;;;;;;15.59;77.49;102662.38;5015800;28;20429;-84
2022/07/09 05:34:39;;;;;;;2.77;2.40;;;;;;;15.68;77.89;102660.56;5014731;28;20125;-84
2022/07/09 05:37:04;;;;;;;3.53;2.93;;;;;;;15.74;77.16;102658.78;5015450;28;20037;-84
2022/07/09 05:39:29;;;;;;;2.97;2.60;;;;;;;15.83;77.56;102662.19;5015167;28;20105;-84
2022/07/09 05:41:55;;;;;;;3.30;2.53;;;;;;;15.87;77.83;102656.09;5014192;28;20108;-84
2022/07/09 05:44:20;;;;;;;2.60;2.40;;;;;;;15.94;79.09;102662.16;5015708;28;20037;-85
2022/07/09 05:46:45;;;;;;;3.20;2.70;;;;;;;15.95;78.16;102663.91;5015577;28;20109;-84
2022/07/09 05:49:10;;;;;;;2.57;2.30;;;;;;;15.99;78.16;102657.72;5014395;28;20068;-85
2022/07/09 05:51:36;;;;;;;4.47;2.70;;;;;;;16.04;80.19;102659.41;5015290;28;20022;-85
2022/07/09 05:54:02;;;;;;;4.63;3.40;;;;;;;16.04;79.31;102656.81;5014068;28;20026;-85
2022/07/09 05:56:27;;;;;;;4.10;3.07;;;;;;;16.09;78.13;102659.41;5015227;28;20033;-84
2022/07/09 05:58:52;;;;;;;3.23;2.83;;;;;;;16.18;79.13;102661.94;5015071;28;20032;-84
2022/07/09 06:01:18;;;;;;;3.33;2.77;;;;;;;16.33;80.88;102660.91;5014553;28;20032;-84
2022/07/09 06:03:43;;;;;;;7.17;4.60;;;;;;;16.43;79.62;102655.56;5015558;28;20113;-85
2022/07/09 06:06:09;;;;;;;4.97;3.50;;;;;;;16.52;78.91;102652.81;5014773;28;20056;-85
2022/07/09 06:08:35;;;;;;;5.63;3.53;;;;;;;16.70;79.23;102654.38;5014015;28;20437;-85
2022/07/09 06:11:00;;;;;;;6.50;4.00;;;;;;;16.86;78.74;102652.41;5014913;28;20021;-84
2022/07/09 06:13:26;;;;;;;5.60;3.90;;;;;;;17.03;80.14;102654.84;5015000;28;20457;-85
2022/07/09 06:15:52;;;;;;;6.50;4.00;;;;;;;17.12;77.79;102652.09;5014027;28;20033;-84
2022/07/09 06:18:18;;;;;;;4.75;3.47;;;;;;;17.29;78.60;102662.34;5015086;28;20041;-83
2022/07/09 06:20:44;;;;;;;3.17;2.80;;;;;;;17.40;77.96;102663.94;5014997;28;20034;-85
2022/07/09 06:23:10;;;;;;;3.80;2.80;;;;;;;17.52;77.45;102668.16;5014692;28;20033;-89
2022/07/09 06:25:35;;;;;;;3.50;3.00;;;;;;;17.68;77.44;102668.78;5015164;28;20022;-86
2022/07/09 06:28:01;;;;;;;2.47;2.28;;;;;;;17.83;77.71;102665.03;5015351;28;20029;-89
2022/07/09 06:30:26;;;;;;;2.63;2.30;;;;;;;17.91;76.73;102671.91;5014540;28;20046;-83
2022/07/09 06:32:51;;;;;;;2.47;2.27;;;;;;;17.94;76.50;102670.97;5013861;28;20172;-83
2022/07/09 06:35:17;;;;;;;3.23;2.80;;;;;;;17.96;76.76;102673.59;5014699;28;20052;-84
2022/07/09 06:37:42;;;;;;;3.10;2.67;;;;;;;17.97;76.99;102675.31;5013768;28;20022;-83
2022/07/09 06:40:08;;;;;;;3.20;2.70;;;;;;;17.99;76.52;102674.44;5014391;28;20191;-84
2022/07/09 06:42:33;;;;;;;3.05;2.60;;;;;;;18.08;76.15;102660.25;5014560;28;20359;-83
2022/07/09 06:44:58;;;;;;;2.47;2.20;;;;;;;18.25;76.73;102664.34;5013131;28;20072;-83
2022/07/09 06:47:24;;;;;;;3.10;2.50;;;;;;;18.40;75.62;102665.81;5014424;28;20025;-84
2022/07/09 06:49:49;;;;;;;3.37;2.70;;;;;;;18.51;75.66;102669.09;5014133;28;20026;-84
2022/07/09 06:52:14;;;;;;;2.50;2.30;;;;;;;18.60;75.80;102671.53;5013511;28;20437;-84
2022/07/09 06:54:40;;;;;;;3.30;2.80;;;;;;;18.68;75.35;102661.75;5014359;28;20108;-83
2022/07/09 06:57:06;;;;;;;2.73;2.50;;;;;;;18.76;74.94;102666.81;5013667;28;20068;-84
2022/07/09 06:59:31;;;;;;;;;;;;;;;18.90;73.59;102668.31;5013839;28;20036;-84
2022/07/09 07:01:57;;;;;;;4.10;2.97;;;;;;;19.11;73.72;102667.00;5013219;28;19913;-84
2022/07/09 07:04:22;;;;;;;5.60;3.80;;;;;;;19.37;74.46;102676.06;5013322;28;20116;-83
2022/07/09 07:06:48;;;;;;;4.53;3.30;;;;;;;19.57;73.18;102665.94;5013909;28;20018;-84
2022/07/09 07:09:21;;;;;;;3.72;2.70;;;;;;;19.93;73.77;102670.34;5013907;28;20037;-85
2022/07/09 07:11:49;;;;;;;3.88;2.95;;;;;;;20.12;72.74;102673.38;5012986;28;20359;-84
2022/07/09 07:14:15;;;;;;;3.63;2.92;;;;;;;20.30;73.02;102679.06;5013354;28;20038;-84
2022/07/09 07:16:41;;;;;;;3.95;3.10;;;;;;;20.37;71.50;102675.34;5013528;28;20359;-84
2022/07/09 07:19:07;;;;;;;3.95;3.40;;;;;;;20.50;71.63;102673.22;5012949;28;20482;-84
2022/07/09 07:21:32;;;;;;;3.00;2.60;;;;;;;20.70;71.45;102666.50;5013428;28;20057;-84
2022/07/09 07:23:57;;;;;;;2.87;2.50;;;;;;;20.91;71.22;102667.69;5013496;28;20058;-85
2022/07/09 07:26:23;;;;;;;2.77;2.40;;;;;;;21.07;71.08;102665.47;5012976;28;20028;-84
2022/07/09 07:28:48;;;;;;;3.03;2.47;;;;;;;21.22;70.43;102666.75;5013201;28;20026;-84
2022/07/09 07:31:14;;;;;;;1.85;1.75;;;;;;;21.38;70.47;102670.66;5013361;28;20045;-85
2022/07/09 07:33:40;;;;;;;3.50;2.67;;;;;;;21.46;69.78;102662.44;5012849;28;20470;-86
2022/07/09 07:36:05;;;;;;;2.40;2.17;;;;;;;21.49;69.33;102664.16;5013390;28;20025;-84
2022/07/09 07:38:30;;;;;;;3.10;2.60;;;;;;;21.50;67.88;102660.59;5012934;28;20026;-85
2022/07/09 07:40:56;;;;;;;2.60;2.40;;;;;;;21.43;69.04;102668.69;5012206;28;20071;-84
2022/07/09 07:43:21;;;;;;;2.57;2.37;;;;;;;21.42;69.45;102674.91;5013436;28;20120;-86
2022/07/09 07:45:46;;;;;;;13.60;6.50;;;;;;;21.22;66.07;102677.31;5013035;28;20208;-86
2022/07/09 07:48:12;;;;;;;16.37;8.40;;;;;;;20.78;66.64;102675.09;5012315;28;20029;-86
2022/07/09 07:50:38;;;;;;;13.77;7.00;;;;;;;20.56;68.52;102682.75;5012609;28;20029;-86
2022/07/09 07:53:05;;;;;;;7.30;4.28;;;;;;;20.53;69.44;102678.44;5012750;28;20488;-86
2022/07/09 07:55:30;;;;;;;4.05;3.10;;;;;;;20.57;69.32;102674.78;5012606;28;20421;-87
2022/07/09 07:57:56;;;;;;;3.90;3.30;;;;;;;20.57;69.77;102676.56;5013083;28;20033;-87
2022/07/09 08:00:22;;;;;;;3.40;2.80;;;;;;;20.59;69.87;102675.59;5013604;28;20022;-88
2022/07/09 08:02:47;;;;;;;5.10;3.30;;;;;;;20.59;69.39;102675.59;5012613;28;20104;-87
2022/07/09 08:05:16;;;;;;;2.50;2.30;;;;;;;20.56;69.56;102672.19;5011726;28;20045;-84
2022/07/09 08:07:41;;;;;;;3.80;3.05;;;;;;;20.55;69.79;102679.22;4992640;28;20025;-84
2022/07/09 08:10:07;;;;;;;3.00;2.70;;;;;;;20.57;69.80;102676.56;5007833;28;20034;-84
2022/07/09 08:12:42;;;;;;;2.35;2.13;;;;;;;20.63;69.87;102664.06;5012579;28;20046;-85
2022/07/09 08:15:22;;;;;;;2.10;2.00;;;;;;;20.78;70.40;102657.50;5011773;28;20033;-84
2022/07/09 08:17:47;;;;;;;1.75;1.65;;;;;;;20.98;69.65;102654.28;5012684;28;20034;-84
2022/07/09 08:20:13;;;;;;;2.27;2.07;;;;;;;21.14;68.81;102644.09;5012113;28;20029;-85
2022/07/09 08:22:38;;;;;;;2.80;2.27;;;;;;;21.32;68.95;102649.69;5012430;28;20050;-82
2022/07/09 08:25:04;;;;;;;2.33;2.10;;;;;;;21.46;68.74;102643.97;5012353;28;20413;-81
2022/07/09 08:27:29;;;;;;;3.95;2.80;;;;;;;21.49;68.25;102632.44;5012648;28;20026;-83
2022/07/09 08:29:55;;;;;;;5.70;3.40;;;;;;;21.59;67.63;102631.25;5011647;28;20088;-83
2022/07/09 08:32:20;;;;;;;4.27;3.00;;;;;;;21.74;68.21;102628.06;5012389;28;20052;-83
2022/07/09 08:34:45;;;;;;;4.20;3.10;;;;;;;22.04;67.48;102621.78;5012408;28;20451;-83
2022/07/09 08:37:11;;;;;;;3.17;2.83;;;;;;;22.40;67.79;102612.56;5011554;28;20041;-81
2022/07/09 08:39:36;;;;;;;5.37;3.77;;;;;;;22.65;66.36;102620.47;5012791;28;20029;-82
2022/07/09 08:42:03;;;;;;;3.13;2.80;;;;;;;22.79;66.77;102618.16;5012637;28;20026;-82
2022/07/09 08:44:30;;;;;;;6.47;4.10;;;;;;;22.96;64.50;102617.50;5011781;28;20165;-82
2022/07/09 08:46:58;;;;;;;4.40;3.03;;;;;;;22.96;65.85;102616.63;5012348;28;20044;-82
2022/07/09 08:49:25;;;;;;;5.40;3.90;;;;;;;23.01;64.93;102613.78;5012991;28;20034;-83
2022/07/09 08:51:52;;;;;;;6.47;4.50;;;;;;;23.03;64.91;102614.59;5011730;28;20026;-82
2022/07/09 08:54:18;;;;;;;3.53;2.95;;;;;;;23.02;64.93;102618.16;5012476;28;20034;-82
2022/07/09 08:56:44;;;;;;;2.78;2.38;;;;;;;22.98;64.79;102612.13;5012374;28;20022;-82
2022/07/09 08:59:09;;;;;;;2.30;2.10;;;;;;;22.94;64.00;102613.16;5011718;28;20072;-83
2022/07/09 09:01:34;;;;;;;3.77;3.13;;;;;;;22.87;63.59;102619.63;5012366;28;20044;-82
2022/07/09 09:04:01;;;;;;;2.70;2.50;;;;;;;22.77;64.93;102617.34;5011349;28;20030;-83
2022/07/09 09:06:26;;;;;;;2.75;2.38;;;;;;;22.75;65.29;102624.50;5012366;28;20026;-84
2022/07/09 09:08:54;;;;;;;2.40;2.20;;;;;;;22.75;65.76;102623.59;5012456;28;20024;-84
2022/07/09 09:11:24;;;;;;;2.00;1.90;;;;;;;22.76;65.32;102626.22;5011936;28;20018;-85
2022/07/09 09:13:51;;;;;;;2.25;1.98;;;;;;;22.74;65.62;102624.56;5012066;28;20541;-84
2022/07/09 09:16:17;;;;;;;;;;;;;;;22.67;65.44;102626.56;5012887;28;20060;-85
2022/07/09 09:18:44;;;;;;;3.05;1.95;;;;;;;22.56;65.50;102619.03;5011910;28;19913;-85
2022/07/09 09:21:10;;;;;;;2.30;2.10;;;;;;;22.47;65.90;102616.75;5012261;28;20089;-85
2022/07/09 09:23:43;;;;;;;2.63;1.90;;;;;;;22.43;65.96;102617.75;5012248;28;20022;-86
2022/07/09 09:26:23;;;;;;;1.83;1.73;;;;;;;22.42;65.84;102618.69;5014705;28;20119;-82
2022/07/09 09:28:52;;;;;;;1.80;1.70;;;;;;;22.40;65.92;102613.44;5015664;28;20034;-84
2022/07/09 09:31:27;;;;;;;2.50;2.30;;;;;;;22.36;65.47;102609.16;5015251;28;20042;-85
2022/07/09 09:33:55;;;;;;;2.10;2.00;;;;;;;22.31;65.92;102617.25;5014771;28;20030;-85
2022/07/09 09:36:32;;;;;;;1.80;1.70;;;;;;;22.27;65.82;102610.38;5015669;28;20451;-85
2022/07/09 09:39:10;;;;;;;;;;;;;;;22.22;66.22;102614.97;5015157;28;20029;-84
2022/07/09 09:41:35;;;;;;;2.03;1.92;;;;;;;22.18;65.48;102616.88;5015744;28;19953;-83
2022/07/09 09:44:09;;;;;;;1.93;1.70;;;;;;;22.17;65.78;102617.78;5015447;28;20053;-83
2022/07/09 09:46:37;;;;;;;2.15;1.90;;;;;;;22.13;65.94;102623.25;5014892;28;20053;-84
2022/07/09 09:49:07;;;;;;;1.65;1.55;;;;;;;22.06;66.04;102614.66;5015047;28;20049;-82
2022/07/09 09:51:36;;;;;;;1.80;1.70;;;;;;;21.97;65.92;102615.84;5015471;28;20084;-83
2022/07/09 09:54:03;;;;;;;2.20;2.05;;;;;;;21.87;65.62;102617.97;5014491;28;20029;-83
2022/07/09 09:56:29;;;;;;;2.10;2.00;;;;;;;21.78;66.05;102614.78;5015153;28;20032;-83
2022/07/09 09:58:55;;;;;;;2.60;2.38;;;;;;;21.67;65.70;102621.28;5015029;28;20037;-84
2022/07/09 10:01:21;;;;;;;2.00;1.90;;;;;;;21.58;65.80;102614.50;5014588;28;20505;-84
2022/07/09 10:03:47;;;;;;;2.53;2.33;;;;;;;21.52;66.16;102609.44;5015289;28;20025;-84
2022/07/09 10:06:12;;;;;;;3.63;2.40;;;;;;;21.54;65.87;102606.72;5014301;28;20284;-84
2022/07/09 10:08:38;;;;;;;2.20;2.00;;;;;;;21.60;66.66;102609.22;5014594;28;20108;-83
2022/07/09 10:11:04;;;;;;;1.90;1.80;;;;;;;21.71;66.53;102612.34;5014392;28;20038;-83
2022/07/09 10:13:29;;;;;;;5.63;3.58;;;;;;;21.80;66.07;102611.16;5014770;28;20022;-84
2022/07/09 10:15:55;;;;;;;2.60;2.40;;;;;;;21.88;66.13;102614.41;5014006;28;20529;-82
2022/07/09 10:18:20;;;;;;;10.13;5.73;;;;;;;21.83;64.49;102607.56;5014945;28;20025;-83
2022/07/09 10:20:45;;;;;;;9.27;5.43;;;;;;;21.78;65.01;102612.13;5014745;28;20076;-83
2022/07/09 10:23:24;;;;;;;10.27;5.83;;;;;;;21.45;65.63;102605.25;5014034;28;20069;-82
2022/07/09 10:25:52;;;;;;;8.85;5.63;;;;;;;21.37;65.61;102608.16;5014219;28;20029;-82
2022/07/09 10:28:19;;;;;;;11.35;6.15;;;;;;;21.54;65.66;102598.81;5013848;28;20029;-83
2022/07/09 10:30:45;;;;;;;13.57;7.60;;;;;;;21.56;65.72;102605.75;5014601;28;20050;-83
2022/07/09 10:33:22;;;;;;;8.55;5.82;;;;;;;21.66;65.27;102613.44;5014401;28;20022;-83
2022/07/09 10:35:51;;;;;;;6.53;4.07;;;;;;;21.72;66.28;102606.16;5013088;28;20026;-82
2022/07/09 10:38:18;;;;;;;3.70;3.08;;;;;;;21.79;65.73;102603.28;5014597;28;20044;-83
2022/07/09 10:40:55;;;;;;;5.07;3.58;;;;;;;21.79;65.80;102596.22;5014491;28;20493;-83
2022/07/09 10:43:36;;;;;;;4.75;3.10;;;;;;;21.90;65.31;102596.69;5013679;28;20042;-83
2022/07/09 10:46:10;;;;;;;4.03;3.00;;;;;;;22.16;65.17;102591.41;5014301;28;20034;-84
2022/07/09 10:48:36;;;;;;;11.02;4.25;;;;;;;22.49;63.41;102589.28;5013377;28;20022;-84
2022/07/09 10:51:01;;;;;;;4.40;3.20;;;;;;;22.73;62.19;102602.50;5031753;28;20159;-84
2022/07/09 10:53:29;;;;;;;5.10;3.30;;;;;;;22.91;63.87;102589.50;5014444;28;20083;-84
2022/07/09 10:55:55;;;;;;;3.13;2.80;;;;;;;23.34;63.41;102589.53;4999353;28;20120;-86
2022/07/09 10:58:21;;;;;;;2.90;2.47;;;;;;;23.57;61.16;102600.03;5010025;28;20074;-85
2022/07/09 11:00:56;;;;;;;;;;;;;;;23.64;60.37;102605.06;5013518;28;20377;-85
2022/07/09 11:03:24;;;;;;;3.53;3.00;;;;;;;23.62;59.90;102601.63;5013898;28;19920;-82
2022/07/09 11:05:50;;;;;;;2.90;2.60;;;;;;;23.74;59.25;102599.28;5009783;28;20021;-84
2022/07/09 11:08:16;;;;;;;3.03;2.60;;;;;;;23.84;58.76;102596.22;5009570;28;20037;-85
2022/07/09 11:10:41;;;;;;;3.03;2.40;;;;;;;23.78;58.55;102602.66;5010901;28;20050;-84
2022/07/09 11:13:08;;;;;;;2.50;2.30;;;;;;;23.73;59.11;102607.31;5013122;28;20025;-84
2022/07/09 11:15:35;;;;;;;2.10;1.98;;;;;;;23.75;59.12;102610.78;5013709;28;20105;-84
2022/07/09 11:18:09;;;;;;;2.78;2.10;;;;;;;23.78;58.38;102607.13;5011121;28;20030;-85
2022/07/09 11:20:44;;;;;;;3.28;2.20;;;;;;;23.79;55.74;102608.84;5011568;28;20190;-85
2022/07/09 11:23:22;;;;;;;2.33;2.13;;;;;;;23.72;57.77;102606.44;5011625;28;20034;-86